NCAR-RAP Real-Time Weather Data

Output produced by METARs form (25 June 2022  04:09 UTC)
found at http://weather.rap.ucar.edu/surface/
 
KLNS 250353Z AUTO 00000KT 10SM CLR 21/17 A3008 RMK AO2 SLP182 T02110172
KLNS 250253Z 00000KT 10SM CLR 22/17 A3007 RMK AO2 SLP181 T02170172 51008
KLNS 250153Z 09003KT 10SM CLR 22/17 A3007 RMK AO2 SLP181 T02220172
KLNS 250053Z 26004KT 10SM CLR 24/17 A3006 RMK AO2 SLP177 T02440167
KLNS 242353Z 24004KT 10SM CLR 26/17 A3005 RMK AO2 SLP173 T02610167 10272 20244 53002
KLNS 242253Z 26006KT 10SM CLR 27/17 A3004 RMK AO2 SLP170 T02670167
KLNS 242153Z 28003KT 10SM CLR 27/17 A3004 RMK AO2 SLP170 T02670167
KLNS 242053Z 29005KT 10SM CLR 27/17 A3004 RMK AO2 SLP171 T02670172 58004
KLNS 241953Z 29009KT 10SM SCT029 26/17 A3005 RMK AO2 SLP174 T02610172
KLNS 241853Z 26008KT 10SM SCT028 26/17 A3005 RMK AO2 SLP174 T02610172
KLNS 241829Z VRB06KT 10SM SCT027 25/17 A3006 RMK AO2 T02500172
KLNS 241753Z 31005KT 10SM OVC027 24/17 A3006 RMK AO2 SLP176 T02440167 10244 20167 58006
KLNS 241653Z COR 26006KT 10SM OVC026 24/17 A3008